createdAt,value
2023-02-11T00:02:13.556Z,-2.29
2023-02-11T00:22:16.115Z,-2.39
2023-02-11T00:42:18.559Z,-2.59
2023-02-11T01:02:20.944Z,-2.66
2023-02-11T01:22:23.428Z,-2.38
2023-02-11T01:42:25.882Z,-2.07
2023-02-11T02:02:28.279Z,-2.00
2023-02-11T02:22:30.694Z,-1.46
2023-02-11T02:42:33.128Z,-1.19
2023-02-11T03:02:35.558Z,-0.81
2023-02-11T03:22:38.009Z,-0.83
2023-02-11T03:42:40.435Z,-0.88
2023-02-11T04:02:42.915Z,-0.91
2023-02-11T04:22:45.328Z,-0.79
2023-02-11T04:42:47.758Z,-0.77
2023-02-11T05:02:50.237Z,-0.96
2023-02-11T05:22:52.914Z,-0.80
2023-02-11T05:42:58.731Z,-0.52
2023-02-11T06:03:01.151Z,-0.44
2023-02-11T06:23:03.588Z,-0.74
2023-02-11T06:43:06.161Z,-0.62
2023-02-11T07:03:08.691Z,-0.35
2023-02-11T07:23:11.640Z,-0.44
2023-02-11T07:43:14.083Z,-0.60
2023-02-11T08:03:16.516Z,0.48
2023-02-11T08:23:18.921Z,1.04
2023-02-11T08:43:21.359Z,2.20
2023-02-11T09:03:24.167Z,2.85
2023-02-11T09:23:26.737Z,2.97
2023-02-11T09:43:29.130Z,3.15
2023-02-11T10:03:31.553Z,3.44
2023-02-11T10:23:34.029Z,4.44
2023-02-11T10:43:36.435Z,4.49
2023-02-11T11:03:38.867Z,5.16
2023-02-11T11:23:41.299Z,5.14
2023-02-11T11:43:43.740Z,4.04
2023-02-11T12:03:46.673Z,4.26
2023-02-11T12:23:49.113Z,4.05
2023-02-11T12:43:51.537Z,3.92
2023-02-11T13:03:54.048Z,3.72
2023-02-11T13:23:57.892Z,3.21
2023-02-11T13:44:00.372Z,3.12
2023-02-11T14:04:21.820Z,2.84
2023-02-11T14:24:24.408Z,2.77
2023-02-11T14:44:26.888Z,2.77
2023-02-11T15:04:29.349Z,2.66
2023-02-11T15:24:31.990Z,2.73
2023-02-11T15:44:34.733Z,2.63
2023-02-11T16:04:37.238Z,2.55
2023-02-11T16:24:40.024Z,2.31
2023-02-11T16:44:42.555Z,2.17
2023-02-11T17:04:45.320Z,1.94
2023-02-11T17:24:47.736Z,1.95
2023-02-11T17:44:50.211Z,2.12
2023-02-11T18:04:54.365Z,2.10
2023-02-11T18:24:56.826Z,2.29
2023-02-11T18:44:59.220Z,2.34
2023-02-11T19:05:01.703Z,2.66
2023-02-11T19:25:04.211Z,2.87
2023-02-11T19:45:08.547Z,2.92
2023-02-11T20:05:11.021Z,3.18
2023-02-11T20:25:13.463Z,3.21
2023-02-11T20:45:15.873Z,3.25
2023-02-11T21:05:18.321Z,3.25
2023-02-11T21:25:21.687Z,3.35
2023-02-11T21:45:24.156Z,3.35
2023-02-11T22:05:26.562Z,3.51
2023-02-11T22:25:28.985Z,3.68
2023-02-11T22:45:31.422Z,3.67
2023-02-11T23:05:34.242Z,3.56
2023-02-11T23:25:36.685Z,3.58
2023-02-11T23:45:39.137Z,3.50
